createdAt,value
2019-02-11T00:01:50.043Z,98.60
2019-02-11T00:04:19.771Z,99.40
2019-02-11T00:06:49.570Z,99.40
2019-02-11T00:09:19.296Z,99.70
2019-02-11T00:11:48.991Z,99.40
2019-02-11T00:14:18.752Z,99.10
2019-02-11T00:16:48.452Z,99.10
2019-02-11T00:19:18.376Z,99.20
2019-02-11T00:21:49.112Z,98.50
2019-02-11T00:24:18.829Z,97.90
2019-02-11T00:26:48.598Z,98.50
2019-02-11T00:29:18.344Z,97.50
2019-02-11T00:31:48.013Z,97.30
2019-02-11T00:34:17.860Z,96.80
2019-02-11T00:36:47.630Z,96.70
2019-02-11T00:39:17.372Z,96.30
2019-02-11T00:41:47.204Z,96.40
2019-02-11T00:44:16.933Z,96.10
2019-02-11T00:46:46.607Z,96.80
2019-02-11T00:49:16.358Z,96.00
2019-02-11T00:51:46.141Z,97.00
2019-02-11T00:54:15.870Z,97.20
2019-02-11T00:56:45.768Z,95.70
2019-02-11T00:59:15.505Z,97.30
2019-02-11T01:01:45.324Z,96.90
2019-02-11T01:04:15.010Z,96.30
2019-02-11T01:06:44.733Z,96.70
2019-02-11T01:09:14.580Z,96.30
2019-02-11T01:11:44.304Z,97.10
2019-02-11T01:14:13.997Z,96.00
2019-02-11T01:16:43.758Z,96.30
2019-02-11T01:19:13.534Z,94.90
2019-02-11T01:21:43.375Z,94.40
2019-02-11T01:24:13.110Z,94.80
2019-02-11T01:26:43.184Z,94.40
2019-02-11T01:29:12.911Z,93.80
2019-02-11T01:31:42.659Z,94.90
2019-02-11T01:34:12.471Z,93.40
2019-02-11T01:36:42.403Z,93.40
2019-02-11T01:39:12.174Z,93.00
2019-02-11T01:41:41.969Z,93.00
2019-02-11T01:44:11.773Z,93.10
2019-02-11T01:46:41.612Z,92.50
2019-02-11T01:49:11.281Z,92.90
2019-02-11T01:51:41.023Z,93.10
2019-02-11T01:54:10.878Z,93.10
2019-02-11T01:56:40.584Z,93.10
2019-02-11T01:59:10.303Z,92.80
2019-02-11T02:01:40.114Z,92.80
2019-02-11T02:04:09.952Z,93.20
2019-02-11T02:06:39.666Z,93.10
2019-02-11T02:09:09.650Z,95.00
2019-02-11T02:11:39.387Z,94.40
2019-02-11T02:14:09.074Z,95.10
2019-02-11T02:16:39.007Z,95.20
2019-02-11T02:19:08.829Z,96.20
2019-02-11T02:21:38.569Z,96.80
2019-02-11T02:24:08.409Z,97.00
2019-02-11T02:26:38.115Z,96.60
2019-02-11T02:29:07.871Z,96.70
2019-02-11T02:31:37.792Z,98.10
2019-02-11T02:34:07.486Z,99.40
2019-02-11T02:36:37.255Z,98.60
2019-02-11T02:39:07.410Z,99.10
2019-02-11T02:41:37.175Z,99.30
2019-02-11T02:44:06.908Z,99.80
2019-02-11T02:46:36.683Z,99.90
2019-02-11T02:49:06.378Z,99.90
2019-02-11T02:51:36.111Z,99.90
2019-02-11T02:54:05.891Z,99.90
2019-02-11T02:56:35.600Z,99.90
2019-02-11T02:59:05.288Z,99.90
2019-02-11T03:01:35.027Z,99.90
2019-02-11T03:04:04.842Z,99.90
2019-02-11T03:06:34.586Z,99.70
2019-02-11T03:09:04.920Z,99.70
2019-02-11T03:11:34.859Z,99.60
2019-02-11T03:14:06.158Z,98.20
2019-02-11T03:16:36.006Z,98.40
2019-02-11T03:19:05.874Z,98.20
2019-02-11T03:21:35.607Z,97.30
2019-02-11T03:24:05.316Z,96.40
2019-02-11T03:26:35.032Z,95.50
2019-02-11T03:29:04.875Z,95.40
2019-02-11T03:31:34.601Z,96.10
2019-02-11T03:34:04.401Z,95.40
2019-02-11T03:36:34.153Z,94.90
2019-02-11T03:39:04.935Z,95.50
2019-02-11T03:41:34.968Z,94.30
2019-02-11T03:44:04.889Z,95.00
2019-02-11T03:46:34.593Z,94.50
2019-02-11T03:49:04.270Z,93.60
2019-02-11T03:51:34.089Z,94.80
2019-02-11T03:54:03.769Z,94.50
2019-02-11T03:56:33.507Z,96.20
2019-02-11T03:59:03.208Z,95.90
2019-02-11T04:01:32.973Z,95.90
2019-02-11T04:04:02.844Z,94.40
2019-02-11T04:06:32.567Z,92.90
2019-02-11T04:09:02.406Z,92.70
2019-02-11T04:11:32.148Z,93.00
2019-02-11T04:14:01.959Z,92.40
2019-02-11T04:16:31.689Z,92.60
2019-02-11T04:19:01.427Z,94.00
2019-02-11T04:21:31.168Z,93.60
2019-02-11T04:24:00.844Z,92.90
2019-02-11T04:26:33.300Z,92.40
2019-02-11T04:29:02.969Z,91.40
2019-02-11T04:31:32.751Z,91.40
2019-02-11T04:34:02.467Z,90.80
2019-02-11T04:36:32.188Z,90.30
2019-02-11T04:39:02.086Z,89.20
2019-02-11T04:41:31.827Z,90.20
2019-02-11T04:44:01.592Z,89.90
2019-02-11T04:46:31.273Z,88.20
2019-02-11T04:49:00.964Z,88.30
2019-02-11T04:51:30.739Z,89.10
2019-02-11T04:54:00.587Z,84.80
2019-02-11T04:56:30.543Z,85.30
2019-02-11T04:59:00.229Z,83.30
2019-02-11T05:01:29.991Z,82.60
2019-02-11T05:03:59.679Z,86.50
2019-02-11T05:06:29.445Z,84.30
2019-02-11T05:08:59.363Z,85.70
2019-02-11T05:11:29.036Z,86.10
2019-02-11T05:13:58.781Z,89.40
2019-02-11T05:16:28.624Z,92.90
2019-02-11T05:18:58.338Z,94.30
2019-02-11T05:21:28.165Z,98.60
2019-02-11T05:23:58.050Z,98.10
2019-02-11T05:26:27.751Z,97.40
2019-02-11T05:28:57.469Z,97.90
2019-02-11T05:31:27.694Z,98.70
2019-02-11T05:33:57.445Z,99.90
2019-02-11T05:36:27.136Z,99.90
2019-02-11T05:38:57.123Z,99.90
2019-02-11T05:41:26.795Z,99.90
2019-02-11T05:43:56.539Z,99.90
2019-02-11T05:46:26.477Z,99.90
2019-02-11T05:48:56.200Z,99.90
2019-02-11T05:51:25.903Z,99.90
2019-02-11T05:53:55.742Z,99.90
2019-02-11T05:56:25.551Z,99.90
2019-02-11T05:58:55.305Z,99.90
2019-02-11T06:01:25.165Z,99.90
2019-02-11T06:03:57.036Z,99.90
2019-02-11T06:06:26.714Z,99.90
2019-02-11T06:08:56.470Z,99.90
2019-02-11T06:11:26.163Z,99.90
2019-02-11T06:13:56.051Z,99.90
2019-02-11T06:16:25.805Z,99.90
2019-02-11T06:18:55.603Z,99.90
2019-02-11T06:21:25.332Z,99.90
2019-02-11T06:23:55.073Z,99.90
2019-02-11T06:26:24.814Z,99.90
2019-02-11T06:28:54.683Z,99.90
2019-02-11T06:31:24.393Z,99.90
2019-02-11T06:33:55.671Z,99.90
2019-02-11T06:36:25.402Z,99.90
2019-02-11T06:38:55.269Z,99.90
2019-02-11T06:41:24.966Z,99.90
2019-02-11T06:43:54.801Z,99.90
2019-02-11T06:46:26.648Z,99.90
2019-02-11T06:48:56.416Z,99.90
2019-02-11T06:51:26.087Z,99.90
2019-02-11T06:53:55.837Z,99.90
2019-02-11T06:56:25.559Z,99.90
2019-02-11T06:58:55.279Z,99.90
2019-02-11T07:01:24.971Z,99.90
2019-02-11T07:03:54.728Z,99.90
2019-02-11T07:06:24.416Z,99.90
2019-02-11T07:08:54.172Z,99.90
2019-02-11T07:11:23.857Z,99.90
2019-02-11T07:13:53.589Z,99.90
2019-02-11T07:16:23.329Z,99.90
2019-02-11T07:18:53.078Z,99.90
2019-02-11T07:21:22.767Z,99.90
2019-02-11T07:23:52.568Z,99.90
2019-02-11T07:26:22.520Z,99.90
2019-02-11T07:28:52.219Z,99.90
2019-02-11T07:31:21.974Z,99.90
2019-02-11T07:33:51.676Z,99.90
2019-02-11T07:36:21.456Z,99.90
2019-02-11T07:38:51.373Z,99.90
2019-02-11T07:41:26.159Z,99.90
2019-02-11T07:44:00.876Z,99.90
2019-02-11T07:46:58.851Z,99.90
2019-02-11T07:49:28.574Z,99.90
2019-02-11T07:51:58.277Z,99.90
2019-02-11T07:54:28.023Z,99.90
2019-02-11T07:56:57.739Z,99.90
2019-02-11T07:59:27.472Z,99.90
2019-02-11T08:01:57.176Z,99.90
2019-02-11T08:04:27.002Z,99.90
2019-02-11T08:06:56.707Z,99.90
2019-02-11T08:09:26.470Z,99.90
2019-02-11T08:11:56.222Z,99.90
2019-02-11T08:14:26.000Z,99.90
2019-02-11T08:16:55.739Z,99.90
2019-02-11T08:19:25.491Z,99.90
2019-02-11T08:21:55.185Z,99.90
2019-02-11T08:24:24.939Z,99.90
2019-02-11T08:26:54.750Z,99.90
2019-02-11T08:29:24.482Z,99.90
2019-02-11T08:31:54.218Z,99.90
2019-02-11T08:34:23.983Z,99.90
2019-02-11T08:36:56.248Z,99.90
2019-02-11T08:39:28.884Z,99.90
2019-02-11T08:41:58.745Z,99.90
2019-02-11T08:44:28.526Z,99.90
2019-02-11T08:46:58.267Z,99.90
2019-02-11T08:49:28.025Z,99.90
2019-02-11T08:51:57.763Z,99.90
2019-02-11T08:54:27.532Z,99.90
2019-02-11T08:56:57.520Z,99.90
2019-02-11T08:59:27.357Z,99.90
2019-02-11T09:01:57.068Z,99.90
2019-02-11T09:04:28.328Z,99.90
2019-02-11T09:06:58.063Z,99.90
2019-02-11T09:09:27.799Z,99.90
2019-02-11T09:11:57.513Z,99.90
2019-02-11T09:14:27.255Z,99.90
2019-02-11T09:16:57.012Z,99.90
2019-02-11T09:19:26.698Z,99.90
2019-02-11T09:21:56.516Z,99.90
2019-02-11T09:24:26.222Z,99.90
2019-02-11T09:26:55.931Z,99.90
2019-02-11T09:29:25.732Z,99.90
2019-02-11T09:31:55.472Z,99.90
2019-02-11T09:34:25.153Z,99.90
2019-02-11T09:36:55.048Z,99.90
2019-02-11T09:39:24.764Z,99.90
2019-02-11T09:41:54.486Z,99.90
2019-02-11T09:44:29.764Z,99.90
2019-02-11T09:46:56.571Z,99.90
2019-02-11T09:49:26.321Z,99.90
2019-02-11T09:51:56.195Z,99.90
2019-02-11T09:54:25.931Z,99.90
2019-02-11T09:56:55.760Z,99.90
2019-02-11T09:59:25.486Z,99.90
2019-02-11T10:01:57.148Z,99.90
2019-02-11T10:04:26.866Z,99.90
2019-02-11T10:06:56.676Z,99.90
2019-02-11T10:09:26.397Z,99.90
2019-02-11T10:11:56.142Z,99.90
2019-02-11T10:14:25.915Z,99.90
2019-02-11T10:16:55.707Z,99.90
2019-02-11T10:19:25.427Z,99.90
2019-02-11T10:21:58.195Z,99.90
2019-02-11T10:24:28.011Z,99.90
2019-02-11T10:26:57.740Z,99.90
2019-02-11T10:29:27.480Z,99.90
2019-02-11T10:31:57.311Z,99.90
2019-02-11T10:34:27.052Z,99.90
2019-02-11T10:36:56.860Z,99.90
2019-02-11T10:39:26.614Z,99.90
2019-02-11T10:41:56.440Z,99.90
2019-02-11T10:44:26.183Z,99.90
2019-02-11T10:46:55.948Z,99.90
2019-02-11T10:49:25.725Z,99.90
2019-02-11T10:51:55.491Z,99.90
2019-02-11T10:54:25.229Z,99.90
2019-02-11T10:56:54.974Z,99.90
2019-02-11T10:59:24.783Z,99.90
2019-02-11T11:01:54.524Z,99.90
2019-02-11T11:04:24.239Z,99.90
2019-02-11T11:06:54.004Z,99.90
2019-02-11T11:09:23.968Z,99.90
2019-02-11T11:11:53.700Z,99.90
2019-02-11T11:14:23.439Z,99.90
2019-02-11T11:16:53.202Z,99.90
2019-02-11T11:19:22.938Z,99.90
2019-02-11T11:21:52.692Z,99.90
2019-02-11T11:24:22.569Z,99.90
2019-02-11T11:26:52.324Z,99.90
2019-02-11T11:29:22.031Z,99.90
2019-02-11T11:31:51.832Z,99.90
2019-02-11T11:34:21.596Z,99.90
2019-02-11T11:36:51.666Z,99.90
2019-02-11T11:39:25.338Z,99.90
2019-02-11T11:41:54.926Z,99.90
2019-02-11T11:44:24.602Z,99.90
2019-02-11T11:46:55.969Z,99.90
2019-02-11T11:49:25.756Z,99.90
2019-02-11T11:51:55.539Z,98.70
2019-02-11T11:54:25.272Z,97.10
2019-02-11T11:56:55.141Z,99.90
2019-02-11T11:59:24.841Z,99.90
2019-02-11T12:01:54.587Z,99.90
2019-02-11T12:04:24.291Z,99.90
2019-02-11T12:06:54.076Z,99.90
2019-02-11T12:09:23.912Z,99.90
2019-02-11T12:11:53.617Z,99.90
2019-02-11T12:14:23.363Z,99.90
2019-02-11T12:16:59.406Z,99.90
2019-02-11T12:19:24.684Z,99.90
2019-02-11T12:21:54.461Z,99.90
2019-02-11T12:24:24.221Z,99.90
2019-02-11T12:26:54.029Z,99.90
2019-02-11T12:29:23.809Z,99.90
2019-02-11T12:31:53.519Z,99.90
2019-02-11T12:34:23.455Z,99.90
2019-02-11T12:36:54.732Z,99.90
2019-02-11T12:39:24.518Z,99.90
2019-02-11T12:41:54.276Z,99.90
2019-02-11T12:44:26.334Z,99.90
2019-02-11T12:47:12.821Z,99.90
2019-02-11T12:49:27.591Z,99.90
2019-02-11T12:51:57.330Z,99.90
2019-02-11T12:54:27.071Z,99.90
2019-02-11T12:56:57.105Z,99.90
2019-02-11T12:59:26.887Z,99.90
2019-02-11T13:01:56.598Z,99.90
2019-02-11T13:04:26.332Z,99.90
2019-02-11T13:06:56.124Z,99.90
2019-02-11T13:09:25.948Z,99.90
2019-02-11T13:11:55.651Z,99.90
2019-02-11T13:14:25.584Z,99.90
2019-02-11T13:16:55.447Z,99.90
2019-02-11T13:19:25.223Z,99.90
2019-02-11T13:21:55.178Z,99.90
2019-02-11T13:24:24.879Z,94.40
2019-02-11T13:26:54.685Z,89.90
2019-02-11T13:29:24.425Z,90.90
2019-02-11T13:31:54.518Z,90.00
2019-02-11T13:34:24.235Z,92.40
2019-02-11T13:36:53.993Z,91.00
2019-02-11T13:39:23.907Z,91.70
2019-02-11T13:41:53.634Z,87.20
2019-02-11T13:44:23.522Z,89.10
2019-02-11T13:46:53.247Z,84.40
2019-02-11T13:49:23.023Z,88.30
2019-02-11T13:51:52.903Z,80.90
2019-02-11T13:54:22.779Z,81.80
2019-02-11T13:56:53.722Z,90.40
2019-02-11T13:59:26.302Z,78.50
2019-02-11T14:01:56.062Z,82.20
2019-02-11T14:04:28.296Z,85.20
2019-02-11T14:06:57.358Z,91.50
2019-02-11T14:09:27.110Z,88.40
2019-02-11T14:11:58.104Z,90.90
2019-02-11T14:14:31.208Z,88.90
2019-02-11T14:17:00.915Z,91.60
2019-02-11T14:19:30.706Z,93.40
2019-02-11T14:22:00.444Z,83.30
2019-02-11T14:24:30.645Z,88.60
2019-02-11T14:27:00.401Z,91.20
2019-02-11T14:29:30.344Z,85.80
2019-02-11T14:32:00.179Z,86.80
2019-02-11T14:34:29.889Z,87.60
2019-02-11T14:37:02.626Z,89.60
2019-02-11T14:39:32.418Z,90.40
2019-02-11T14:42:02.311Z,89.50
2019-02-11T14:44:32.016Z,90.20
2019-02-11T14:47:01.753Z,90.10
2019-02-11T14:49:31.590Z,91.10
2019-02-11T14:52:01.308Z,97.90
2019-02-11T14:54:31.223Z,95.50
2019-02-11T14:57:01.054Z,93.20
2019-02-11T14:59:32.720Z,97.90
2019-02-11T15:02:02.584Z,99.90
2019-02-11T15:04:32.371Z,99.90
2019-02-11T15:07:02.162Z,99.90
2019-02-11T15:09:31.928Z,99.90
2019-02-11T15:12:01.655Z,99.90
2019-02-11T15:14:31.528Z,97.50
2019-02-11T15:17:01.440Z,98.90
2019-02-11T15:19:31.152Z,97.00
2019-02-11T15:22:00.977Z,96.90
2019-02-11T15:24:31.013Z,94.90
2019-02-11T15:27:00.776Z,92.10
2019-02-11T15:29:30.546Z,92.40
2019-02-11T15:32:00.303Z,91.50
2019-02-11T15:34:30.038Z,90.90
2019-02-11T15:36:59.756Z,89.80
2019-02-11T15:39:29.564Z,92.00
2019-02-11T15:41:59.303Z,92.30
2019-02-11T15:44:29.106Z,95.40
2019-02-11T15:46:58.852Z,90.60
2019-02-11T15:49:28.595Z,92.00
2019-02-11T15:51:58.309Z,90.70
2019-02-11T15:54:27.995Z,90.90
2019-02-11T15:56:57.885Z,91.20
2019-02-11T15:59:27.580Z,92.90
2019-02-11T16:01:57.351Z,93.60
2019-02-11T16:04:27.085Z,93.00
2019-02-11T16:06:57.017Z,95.00
2019-02-11T16:09:26.764Z,96.70
2019-02-11T16:11:56.616Z,95.90
2019-02-11T16:14:26.364Z,94.40
2019-02-11T16:16:56.149Z,94.30
2019-02-11T16:19:25.942Z,95.70
2019-02-11T16:21:55.749Z,92.20
2019-02-11T16:24:25.612Z,89.10
2019-02-11T16:26:55.311Z,87.40
2019-02-11T16:29:25.091Z,90.20
2019-02-11T16:32:00.577Z,89.60
2019-02-11T16:34:26.673Z,89.80
2019-02-11T16:36:56.351Z,91.80
2019-02-11T16:39:26.119Z,86.90
2019-02-11T16:41:55.931Z,90.30
2019-02-11T16:44:25.717Z,90.60
2019-02-11T16:46:55.558Z,89.00
2019-02-11T16:49:25.316Z,86.40
2019-02-11T16:51:55.135Z,84.60
2019-02-11T16:54:24.821Z,86.50
2019-02-11T16:56:54.581Z,87.50
2019-02-11T16:59:24.259Z,85.30
2019-02-11T17:01:54.067Z,87.50
2019-02-11T17:04:23.781Z,87.50
2019-02-11T17:06:53.511Z,87.40
2019-02-11T17:09:23.219Z,84.50
2019-02-11T17:11:54.071Z,84.60
2019-02-11T17:14:23.806Z,86.00
2019-02-11T17:16:53.532Z,86.00
2019-02-11T17:19:23.276Z,88.10
2019-02-11T17:21:53.094Z,84.80
2019-02-11T17:24:22.809Z,87.40
2019-02-11T17:26:52.631Z,86.80
2019-02-11T17:29:22.428Z,91.30
2019-02-11T17:31:52.143Z,85.80
2019-02-11T17:34:21.857Z,87.00
2019-02-11T17:36:51.872Z,90.20
2019-02-11T17:39:21.682Z,90.40
2019-02-11T17:41:51.475Z,86.50
2019-02-11T17:44:21.210Z,87.40
2019-02-11T17:46:51.140Z,86.00
2019-02-11T17:49:20.888Z,84.80
2019-02-11T17:51:50.650Z,86.20
2019-02-11T17:54:20.379Z,85.00
2019-02-11T17:56:50.252Z,87.30
2019-02-11T17:59:20.008Z,84.10
2019-02-11T18:01:50.072Z,88.10
2019-02-11T18:04:19.861Z,88.00
2019-02-11T18:06:49.676Z,84.80
2019-02-11T18:09:19.367Z,84.50
2019-02-11T18:11:49.148Z,85.80
2019-02-11T18:14:18.827Z,83.70
2019-02-11T18:16:48.560Z,84.00
2019-02-11T18:19:25.805Z,87.40
2019-02-11T18:21:49.746Z,86.90
2019-02-11T18:24:19.497Z,85.50
2019-02-11T18:26:49.296Z,85.00
2019-02-11T18:29:19.066Z,85.70
2019-02-11T18:31:48.947Z,87.30
2019-02-11T18:34:18.755Z,88.80
2019-02-11T18:36:48.552Z,91.50
2019-02-11T18:39:18.328Z,91.30
2019-02-11T18:41:48.108Z,94.10
2019-02-11T18:44:17.940Z,96.60
2019-02-11T18:46:47.726Z,99.90
2019-02-11T18:49:17.563Z,99.90
2019-02-11T18:51:47.346Z,99.90
2019-02-11T18:54:18.597Z,99.90
2019-02-11T18:56:48.503Z,99.90
2019-02-11T18:59:24.467Z,99.90
2019-02-11T19:01:50.426Z,99.90
2019-02-11T19:04:20.151Z,99.90
2019-02-11T19:06:49.946Z,99.90
2019-02-11T19:09:21.111Z,99.90
2019-02-11T19:11:51.015Z,99.90
2019-02-11T19:14:20.730Z,99.90
2019-02-11T19:16:50.552Z,99.90
2019-02-11T19:19:20.375Z,99.90
2019-02-11T19:21:50.114Z,99.90
2019-02-11T19:24:19.854Z,99.90
2019-02-11T19:26:49.636Z,99.90
2019-02-11T19:29:19.436Z,99.90
2019-02-11T19:31:49.143Z,99.90
2019-02-11T19:34:21.923Z,99.90
2019-02-11T19:37:02.935Z,99.90
2019-02-11T19:39:32.784Z,99.90
2019-02-11T19:42:02.523Z,99.90
2019-02-11T19:44:32.440Z,99.90
2019-02-11T19:47:02.300Z,99.90
2019-02-11T19:49:32.172Z,99.90
2019-02-11T19:52:01.979Z,99.90
2019-02-11T19:54:31.722Z,99.90
2019-02-11T19:57:01.568Z,99.90
2019-02-11T19:59:31.796Z,99.90
2019-02-11T20:02:04.339Z,99.90
2019-02-11T20:04:34.135Z,99.90
2019-02-11T20:07:03.988Z,99.90
2019-02-11T20:09:33.940Z,99.90
2019-02-11T20:12:06.884Z,99.90
2019-02-11T20:14:36.742Z,99.90
2019-02-11T20:17:06.556Z,99.90
2019-02-11T20:19:36.332Z,99.90
2019-02-11T20:22:06.156Z,99.90
2019-02-11T20:24:35.986Z,99.90
2019-02-11T20:27:05.779Z,99.90
2019-02-11T20:29:37.180Z,99.90
2019-02-11T20:32:07.110Z,99.90
2019-02-11T20:34:36.931Z,99.90
2019-02-11T20:37:06.701Z,99.90
2019-02-11T20:39:36.695Z,99.90
2019-02-11T20:42:06.666Z,99.90
2019-02-11T20:44:36.720Z,99.90
2019-02-11T20:47:06.708Z,99.90
2019-02-11T20:49:36.538Z,99.90
2019-02-11T20:52:06.419Z,99.90
2019-02-11T20:54:36.212Z,99.90
2019-02-11T20:57:06.522Z,99.90
2019-02-11T20:59:36.556Z,99.90
2019-02-11T21:02:06.835Z,99.90
2019-02-11T21:04:36.885Z,99.90
2019-02-11T21:07:08.584Z,99.90
2019-02-11T21:09:38.419Z,99.90
2019-02-11T21:12:10.030Z,99.90
2019-02-11T21:14:39.796Z,99.90
2019-02-11T21:17:09.606Z,99.90
2019-02-11T21:19:39.655Z,99.90
2019-02-11T21:22:09.630Z,99.90
2019-02-11T21:24:39.432Z,99.90
2019-02-11T21:27:11.448Z,99.90
2019-02-11T21:29:42.799Z,99.90
2019-02-11T21:32:14.802Z,99.90
2019-02-11T21:34:44.520Z,99.90
2019-02-11T21:37:14.226Z,99.90
2019-02-11T21:39:44.724Z,99.90
2019-02-11T21:42:14.825Z,99.90
2019-02-11T21:44:45.202Z,99.90
2019-02-11T21:47:14.959Z,99.90
2019-02-11T21:49:44.694Z,99.90
2019-02-11T21:52:14.575Z,99.90
2019-02-11T21:54:45.371Z,97.90
2019-02-11T21:57:17.910Z,96.20
2019-02-11T21:59:47.768Z,92.40
2019-02-11T22:02:17.476Z,93.80
2019-02-11T22:04:47.616Z,91.30
2019-02-11T22:07:17.714Z,89.40
2019-02-11T22:09:47.506Z,90.30
2019-02-11T22:12:17.262Z,91.20
2019-02-11T22:14:47.125Z,88.80
2019-02-11T22:17:16.947Z,88.20
2019-02-11T22:19:46.804Z,86.80
2019-02-11T22:22:16.534Z,89.00
2019-02-11T22:24:46.286Z,89.80
2019-02-11T22:27:15.985Z,88.90
2019-02-11T22:29:45.740Z,87.10
2019-02-11T22:32:17.813Z,87.30
2019-02-11T22:34:47.549Z,90.00
2019-02-11T22:37:17.226Z,87.10
2019-02-11T22:39:47.009Z,88.10
2019-02-11T22:42:16.702Z,83.80
2019-02-11T22:44:46.479Z,78.80
2019-02-11T22:47:16.173Z,73.10
2019-02-11T22:49:45.913Z,74.10
2019-02-11T22:52:15.739Z,75.90
2019-02-11T22:54:45.529Z,75.40
2019-02-11T22:57:15.239Z,79.70
2019-02-11T22:59:45.016Z,79.60
2019-02-11T23:02:14.718Z,81.40
2019-02-11T23:04:44.435Z,80.60
2019-02-11T23:07:14.130Z,80.30
2019-02-11T23:09:43.844Z,82.80
2019-02-11T23:12:13.578Z,84.40
2019-02-11T23:14:43.362Z,85.50
2019-02-11T23:17:13.148Z,85.60
2019-02-11T23:19:42.892Z,87.60
2019-02-11T23:22:12.571Z,84.70
2019-02-11T23:24:42.301Z,88.00
2019-02-11T23:27:11.988Z,85.50
2019-02-11T23:29:41.890Z,86.90
2019-02-11T23:32:11.608Z,90.00
2019-02-11T23:34:41.364Z,89.40
2019-02-11T23:37:11.060Z,90.40
2019-02-11T23:39:40.810Z,88.80
2019-02-11T23:42:10.554Z,91.10
2019-02-11T23:44:40.287Z,91.10
2019-02-11T23:47:10.001Z,92.00
2019-02-11T23:49:39.748Z,92.10
2019-02-11T23:52:09.614Z,93.20
2019-02-11T23:54:39.347Z,95.10
2019-02-11T23:57:09.039Z,98.20
2019-02-11T23:59:38.768Z,96.20
